Nisswa, Minnesota
Current Conditions -  °F | °C
As of 5:53 PM on Wednesday 22 Oct 2014 (Local Time) from KBRD Reporting Station
Clear Clear  
Wind Chill: 56°   Ceiling: Unl
Heat Index: 56°   Visibility: 10mi
Dew Point: 42°   Wind: 9mph
Humidity: 60%   Direction: 160°SSE
Pressure: 29.98"   Gusts: NA
Location:  46.52°N, 94.29°W
Report Text: KBRD 222253Z AUTO 16008KT 10SM CLR 13/06 A2998 RMK AO2 SLP157 T01330056
Loading
Personal Weather Stations






























Interactive Weather Map
Tropical Storm Tracking
New forecast layout! Learn more

10-Day Weather Forecast

Advertisements
Track Severe Weather on mobile